This is the latest recevied weather packets stored in our database for station/object KC3LDA. If no packets are shown the sender has not sent any weather packets the latest 10 day(s).
| Time | Temp. | Humidity | Pressure | Rain* | Wind** | Luminosity | Snow |
|---|---|---|---|---|---|---|---|
| 1777759446 | 13.89° C | 71% | 1006.7 hPa | 0 mm | - | 73 W/m² | - |
| 1777759143 | 13.89° C | 69% | 1006.9 hPa | 0 mm | - | 51 W/m² | - |
| 1777758840 | 13.89° C | 69% | 1006.9 hPa | 0 mm | - | 47 W/m² | - |
| 1777758537 | 14.44° C | 70% | 1006.7 hPa | 0 mm | - | 63 W/m² | - |
| 1777757931 | 14.44° C | 66% | 1006.7 hPa | 0 mm | - | 148 W/m² | - |
| 1777757628 | 14.44° C | 65% | 1006.7 hPa | 0 mm | - | 140 W/m² | - |
| 1777757327 | 14.44° C | 66% | 1006.6 hPa | 0 mm | - | 139 W/m² | - |
| 1777757025 | 15° C | 65% | 1006.5 hPa | 0 mm | - | 112 W/m² | - |
| 1777756722 | 15° C | 64% | 1006.6 hPa | 0 mm | - | 114 W/m² | - |
| 1777756417 | 15° C | 63% | 1006.5 hPa | 0 mm | - | 125 W/m² | - |
| 1777754903 | 15° C | 67% | 1006.3 hPa | 0 mm | - | 233 W/m² | - |
| 1777753695 | 15.56° C | 55% | 1006.5 hPa | 0 mm | - | 228 W/m² | - |
| 1777751877 | 15° C | 66% | 1007 hPa | 0 mm | - | 259 W/m² | - |
| 1777751270 | 16.11° C | 63% | 1007.1 hPa | 0 mm | - | 213 W/m² | - |
| 1777747944 | 14.44° C | 73% | 1007.6 hPa | 0 mm | - | 414 W/m² | - |
| 1777747032 | 14.44° C | 75% | 1007.7 hPa | 0 mm | - | 461 W/m² | - |
| 1777745817 | 15° C | 74% | 1007.9 hPa | 0 mm | - | 617 W/m² | - |
| 1777745516 | 15° C | 76% | 1007.9 hPa | 0 mm | - | 1168 W/m² | - |
| 1777745213 | 14.44° C | 76% | 1008.1 hPa | 0 mm | - | 1102 W/m² | - |
| 1777744609 | 14.44° C | 76% | 1008.1 hPa | 0 mm | - | 500 W/m² | - |
| 1777742183 | 12.78° C | 84% | 1008.3 hPa | 0 mm | - | 382 W/m² | - |
| 1777741577 | 12.78° C | 83% | 1008.4 hPa | 0 mm | - | 389 W/m² | - |
| 1777740970 | 12.78° C | 86% | 1008.8 hPa | 0 mm | - | 447 W/m² | - |
| 1777739756 | 12.78° C | 87% | 1008.9 hPa | 0 mm | - | 327 W/m² | - |
| 1777739453 | 12.78° C | 87% | 1008.9 hPa | 0 mm | - | 323 W/m² | - |
* Rain latest hour (hover to see other rain measurements)
** Current wind speed in m/s (hover to see current wind gust speed)